createdAt,value
2022-11-02T00:03:38.185Z,3.17
2022-11-02T00:07:19.874Z,2.75
2022-11-02T00:11:01.612Z,2.10
2022-11-02T00:14:43.287Z,2.45
2022-11-02T00:18:24.963Z,2.90
2022-11-02T00:22:06.848Z,2.22
2022-11-02T00:25:52.916Z,2.22
2022-11-02T00:29:35.310Z,2.22
2022-11-02T00:33:17.021Z,2.75
2022-11-02T00:36:58.705Z,2.65
2022-11-02T00:40:40.400Z,2.15
2022-11-02T00:44:22.343Z,2.35
2022-11-02T00:48:04.951Z,2.05
2022-11-02T00:51:47.300Z,1.85
2022-11-02T00:55:29.218Z,1.52
2022-11-02T00:59:11.011Z,2.13
2022-11-02T01:02:52.693Z,2.25
2022-11-02T01:06:34.489Z,1.70
2022-11-02T01:10:16.287Z,1.88
2022-11-02T01:13:58.150Z,2.00
2022-11-02T01:17:39.894Z,2.33
2022-11-02T01:21:22.325Z,2.15
2022-11-02T01:25:04.968Z,2.03
2022-11-02T01:28:46.661Z,2.85
2022-11-02T01:32:31.563Z,2.53
2022-11-02T01:36:16.495Z,2.17
2022-11-02T01:39:58.275Z,1.83
2022-11-02T01:43:49.191Z,2.10
2022-11-02T01:47:39.934Z,2.45
2022-11-02T01:51:43.415Z,2.85
2022-11-02T01:55:30.302Z,1.95
2022-11-02T01:59:18.522Z,2.55
2022-11-02T02:03:10.721Z,2.10
2022-11-02T02:06:56.701Z,2.47
2022-11-02T02:10:38.477Z,2.22
2022-11-02T02:14:21.304Z,2.38
2022-11-02T02:18:19.879Z,2.63
2022-11-02T02:26:25.272Z,2.03
2022-11-02T02:30:11.902Z,1.85
2022-11-02T02:33:59.680Z,2.40
2022-11-02T02:38:01.308Z,2.03
2022-11-02T02:42:02.277Z,2.08
2022-11-02T02:46:08.340Z,1.90
2022-11-02T02:49:56.649Z,2.00
2022-11-02T02:53:46.278Z,1.98
2022-11-02T02:57:31.511Z,2.40
2022-11-02T03:01:15.753Z,2.00
2022-11-02T03:04:57.602Z,1.90
2022-11-02T03:08:43.197Z,2.60
2022-11-02T03:12:36.769Z,2.30
2022-11-02T03:16:27.458Z,2.20
2022-11-02T03:20:42.897Z,2.50
2022-11-02T03:24:42.032Z,2.60
2022-11-02T03:28:49.065Z,2.60
2022-11-02T03:32:36.545Z,2.63
2022-11-02T03:36:28.213Z,1.77
2022-11-02T03:40:20.722Z,2.13
2022-11-02T03:44:21.538Z,2.15
2022-11-02T03:48:07.706Z,1.60
2022-11-02T03:51:51.041Z,2.75
2022-11-02T03:55:41.049Z,2.15
2022-11-02T03:59:22.763Z,2.45
2022-11-02T04:03:07.861Z,2.15
2022-11-02T04:06:49.763Z,2.28
2022-11-02T04:10:31.638Z,2.72
2022-11-02T04:14:31.740Z,2.13
2022-11-02T04:18:32.278Z,2.20
2022-11-02T04:22:32.679Z,3.05
2022-11-02T04:26:14.395Z,2.75
2022-11-02T04:29:56.116Z,2.60
2022-11-02T04:33:37.826Z,2.83
2022-11-02T04:37:38.052Z,2.70
2022-11-02T04:41:40.759Z,2.65
2022-11-02T04:45:22.499Z,2.72
2022-11-02T04:49:05.177Z,3.03
2022-11-02T04:52:46.924Z,2.75
2022-11-02T04:56:29.384Z,2.50
2022-11-02T05:00:12.077Z,2.17
2022-11-02T05:03:55.544Z,2.55
2022-11-02T05:07:37.237Z,2.65
2022-11-02T05:11:18.964Z,2.38
2022-11-02T05:15:00.740Z,2.45
2022-11-02T05:18:43.042Z,2.60
2022-11-02T05:22:24.751Z,2.63
2022-11-02T05:26:10.581Z,2.25
2022-11-02T05:29:52.280Z,2.08
2022-11-02T05:33:34.548Z,2.50
2022-11-02T05:37:16.414Z,2.67
2022-11-02T05:40:59.836Z,2.65
2022-11-02T05:44:41.596Z,2.10
2022-11-02T05:48:24.506Z,2.90
2022-11-02T05:52:06.216Z,2.67
2022-11-02T05:55:47.928Z,2.08
2022-11-02T05:59:29.691Z,2.65
2022-11-02T06:03:11.432Z,2.90
2022-11-02T06:06:53.161Z,2.85
2022-11-02T06:10:35.381Z,2.38
2022-11-02T06:14:17.092Z,2.60
2022-11-02T06:17:58.878Z,2.53
2022-11-02T06:21:43.143Z,2.60
2022-11-02T06:25:27.591Z,2.70
2022-11-02T06:29:09.324Z,3.00
2022-11-02T06:32:53.056Z,3.28
2022-11-02T06:36:34.750Z,3.10
2022-11-02T06:40:18.336Z,3.30
2022-11-02T06:44:02.108Z,2.58
2022-11-02T06:47:43.899Z,3.08
2022-11-02T06:51:25.628Z,3.03
2022-11-02T06:55:07.692Z,3.72
2022-11-02T06:58:49.428Z,2.28
2022-11-02T07:02:31.909Z,3.00
2022-11-02T07:06:14.543Z,3.13
2022-11-02T07:09:56.498Z,3.08
2022-11-02T07:13:38.209Z,3.15
2022-11-02T07:17:19.896Z,3.30
2022-11-02T07:21:02.556Z,3.03
2022-11-02T07:24:44.272Z,3.05
2022-11-02T07:28:26.045Z,2.92
2022-11-02T07:32:08.908Z,3.03
2022-11-02T07:35:50.717Z,3.22
2022-11-02T07:39:32.444Z,2.53
2022-11-02T07:43:14.153Z,4.53
2022-11-02T07:46:55.940Z,3.08
2022-11-02T07:50:37.749Z,3.50
2022-11-02T07:54:19.453Z,3.28
2022-11-02T07:58:05.687Z,3.50
2022-11-02T08:01:47.660Z,2.97
2022-11-02T08:05:31.500Z,2.90
2022-11-02T08:09:13.527Z,3.22
2022-11-02T08:12:56.484Z,3.00
2022-11-02T08:16:38.221Z,2.88
2022-11-02T08:20:19.897Z,3.50
2022-11-02T08:24:01.613Z,2.92
2022-11-02T08:27:43.312Z,3.17
2022-11-02T08:31:24.997Z,4.45
2022-11-02T08:35:07.168Z,3.45
2022-11-02T08:38:48.853Z,3.03
2022-11-02T08:42:30.555Z,2.80
2022-11-02T08:46:15.305Z,3.03
2022-11-02T08:49:57.646Z,3.05
2022-11-02T08:53:39.452Z,3.40
2022-11-02T08:57:21.337Z,3.88
2022-11-02T09:01:03.445Z,2.88
2022-11-02T09:04:45.255Z,3.47
2022-11-02T09:08:28.072Z,2.97
2022-11-02T09:12:10.430Z,3.13
2022-11-02T09:15:54.555Z,3.63
2022-11-02T09:19:36.232Z,3.17
2022-11-02T09:23:20.402Z,3.08
2022-11-02T09:27:02.124Z,3.25
2022-11-02T09:30:44.021Z,2.88
2022-11-02T09:34:25.767Z,3.55
2022-11-02T09:38:07.993Z,3.17
2022-11-02T09:42:04.285Z,3.33
2022-11-02T09:45:58.185Z,3.67
2022-11-02T09:49:40.957Z,3.30
2022-11-02T09:53:31.246Z,3.50
2022-11-02T09:57:24.037Z,3.47
2022-11-02T10:01:36.840Z,3.60
2022-11-02T10:05:44.329Z,3.60
2022-11-02T10:09:37.367Z,3.65
2022-11-02T10:13:48.232Z,3.88
2022-11-02T10:17:37.264Z,3.42
2022-11-02T10:21:32.630Z,3.80
2022-11-02T10:25:16.883Z,3.88
2022-11-02T10:29:06.686Z,5.18
2022-11-02T10:32:54.511Z,4.70
2022-11-02T10:37:02.112Z,4.25
2022-11-02T10:40:53.983Z,4.63
2022-11-02T10:44:44.749Z,5.00
2022-11-02T10:49:09.266Z,4.18
2022-11-02T10:52:51.021Z,4.70
2022-11-02T10:56:33.907Z,5.63
2022-11-02T11:00:25.333Z,5.47
2022-11-02T11:04:24.944Z,4.95
2022-11-02T11:08:07.262Z,4.65
2022-11-02T11:12:06.222Z,2.90
2022-11-02T11:15:51.804Z,4.78
2022-11-02T11:19:48.858Z,4.85
2022-11-02T11:23:30.634Z,4.93
2022-11-02T11:27:12.306Z,5.03
2022-11-02T11:31:14.477Z,4.30
2022-11-02T11:35:19.106Z,5.03
2022-11-02T11:39:22.864Z,4.70
2022-11-02T11:43:10.350Z,4.07
2022-11-02T11:46:56.523Z,4.30
2022-11-02T11:50:47.513Z,3.80
2022-11-02T11:54:31.236Z,4.72
2022-11-02T11:58:25.259Z,3.63
2022-11-02T12:02:40.968Z,4.50
2022-11-02T12:06:31.906Z,5.03
2022-11-02T12:10:18.837Z,4.55
2022-11-02T12:14:24.568Z,3.53
2022-11-02T12:18:22.298Z,4.38
2022-11-02T12:22:13.764Z,4.10
2022-11-02T12:26:14.122Z,4.25
2022-11-02T12:30:04.654Z,4.57
2022-11-02T12:34:00.883Z,4.32
2022-11-02T12:37:58.812Z,4.20
2022-11-02T12:41:51.239Z,3.42
2022-11-02T12:45:52.240Z,3.00
2022-11-02T12:50:01.029Z,3.90
2022-11-02T12:54:10.962Z,4.00
2022-11-02T12:57:58.086Z,4.57
2022-11-02T13:01:43.051Z,4.50
2022-11-02T13:05:34.409Z,4.90
2022-11-02T13:09:27.773Z,3.70
2022-11-02T13:13:18.762Z,4.85
2022-11-02T13:17:11.661Z,4.30
2022-11-02T13:20:57.610Z,3.70
2022-11-02T13:24:55.359Z,4.65
2022-11-02T13:28:54.168Z,4.47
2022-11-02T13:32:37.867Z,3.72
2022-11-02T13:36:19.769Z,5.32
2022-11-02T13:40:12.500Z,4.53
2022-11-02T13:44:28.654Z,4.15
2022-11-02T13:48:58.351Z,3.95
2022-11-02T13:56:30.875Z,5.03
2022-11-02T14:00:24.301Z,4.10
2022-11-02T14:04:10.289Z,3.92
2022-11-02T14:07:52.093Z,4.57
2022-11-02T14:11:52.084Z,5.38
2022-11-02T14:15:34.140Z,3.65
2022-11-02T14:19:20.423Z,4.32
2022-11-02T14:23:11.792Z,4.38
2022-11-02T14:26:56.101Z,4.05
2022-11-02T14:30:44.109Z,4.30
2022-11-02T14:38:58.517Z,3.80
2022-11-02T14:43:18.188Z,3.15
2022-11-02T14:47:08.162Z,4.03
2022-11-02T14:51:13.339Z,5.10
2022-11-02T14:55:19.734Z,3.78
2022-11-02T14:59:01.480Z,4.78
2022-11-02T15:02:43.656Z,4.80
2022-11-02T15:06:28.173Z,4.45
2022-11-02T15:10:15.915Z,5.00
2022-11-02T15:13:57.669Z,4.13
2022-11-02T15:17:39.317Z,4.60
2022-11-02T15:21:22.721Z,4.53
2022-11-02T15:25:26.487Z,4.55
2022-11-02T15:29:30.865Z,4.50
2022-11-02T15:33:20.699Z,4.70
2022-11-02T15:37:03.306Z,4.93
2022-11-02T15:41:06.953Z,4.30
2022-11-02T15:44:48.686Z,5.82
2022-11-02T15:48:57.627Z,5.50
2022-11-02T15:57:24.890Z,6.50
2022-11-02T16:01:21.052Z,5.72
2022-11-02T16:05:06.074Z,6.93
2022-11-02T16:08:47.795Z,5.28
2022-11-02T16:12:34.779Z,4.65
2022-11-02T16:16:18.508Z,4.38
2022-11-02T16:20:40.389Z,4.82
2022-11-02T16:24:22.391Z,5.07
2022-11-02T16:28:25.341Z,4.65
2022-11-02T16:32:11.517Z,6.35
2022-11-02T16:35:53.501Z,4.85
2022-11-02T16:39:39.591Z,5.15
2022-11-02T16:43:21.890Z,4.60
2022-11-02T16:47:12.014Z,4.03
2022-11-02T16:51:02.473Z,5.35
2022-11-02T16:54:45.151Z,4.30
2022-11-02T16:58:27.642Z,4.40
2022-11-02T17:02:13.447Z,4.95
2022-11-02T17:05:57.271Z,4.22
2022-11-02T17:09:39.599Z,4.82
2022-11-02T17:13:22.248Z,4.72
2022-11-02T17:17:27.529Z,4.20
2022-11-02T17:21:27.785Z,5.18
2022-11-02T17:25:19.654Z,4.82
2022-11-02T17:29:16.359Z,4.13
2022-11-02T17:32:59.040Z,4.55
2022-11-02T17:36:45.155Z,4.35
2022-11-02T17:40:26.908Z,3.45
2022-11-02T17:44:16.613Z,4.75
2022-11-02T17:48:00.392Z,4.82
2022-11-02T17:51:42.477Z,5.03
2022-11-02T17:55:27.655Z,5.07
2022-11-02T17:59:09.709Z,4.53
2022-11-02T18:02:54.170Z,4.60
2022-11-02T18:06:35.920Z,5.22
2022-11-02T18:10:19.437Z,4.78
2022-11-02T18:14:01.388Z,5.32
2022-11-02T18:17:43.562Z,5.10
2022-11-02T18:21:25.269Z,5.43
2022-11-02T18:25:10.378Z,5.45
2022-11-02T18:28:52.168Z,5.15
2022-11-02T18:32:37.264Z,4.25
2022-11-02T18:36:19.693Z,4.25
2022-11-02T18:40:01.623Z,4.93
2022-11-02T18:43:43.633Z,5.43
2022-11-02T18:47:25.323Z,4.82
2022-11-02T18:51:07.067Z,5.68
2022-11-02T18:54:48.960Z,4.20
2022-11-02T18:58:30.661Z,6.38
2022-11-02T19:02:12.547Z,6.57
2022-11-02T19:06:15.820Z,3.75
2022-11-02T19:10:03.309Z,5.25
2022-11-02T19:13:45.508Z,4.13
2022-11-02T19:17:27.513Z,3.47
2022-11-02T19:21:09.227Z,2.88
2022-11-02T19:24:51.762Z,2.00
2022-11-02T19:28:33.474Z,2.60
2022-11-02T19:32:15.483Z,2.40
2022-11-02T19:35:58.055Z,1.40
2022-11-02T19:39:39.978Z,1.70
2022-11-02T19:43:21.665Z,3.15
2022-11-02T19:47:03.458Z,1.90
2022-11-02T19:50:45.161Z,2.75
2022-11-02T19:54:26.887Z,1.88
2022-11-02T19:58:08.587Z,1.95
2022-11-02T20:01:51.922Z,1.52
2022-11-02T20:05:33.874Z,1.30
2022-11-02T20:09:18.375Z,1.40
2022-11-02T20:13:00.093Z,1.42
2022-11-02T20:16:42.495Z,2.10
2022-11-02T20:20:24.328Z,1.67
2022-11-02T20:24:07.795Z,1.38
2022-11-02T20:27:49.621Z,1.20
2022-11-02T20:31:34.118Z,1.60
2022-11-02T20:35:17.672Z,1.70
2022-11-02T20:38:59.594Z,2.45
2022-11-02T20:42:41.398Z,2.50
2022-11-02T20:46:42.630Z,2.92
2022-11-02T20:50:26.103Z,3.03
2022-11-02T20:54:08.863Z,1.80
2022-11-02T20:57:50.993Z,1.88
2022-11-02T21:01:32.891Z,2.15
2022-11-02T21:05:15.123Z,2.20
2022-11-02T21:08:59.461Z,1.88
2022-11-02T21:12:59.866Z,2.08
2022-11-02T21:16:41.552Z,2.30
2022-11-02T21:20:39.228Z,1.75
2022-11-02T21:24:20.981Z,1.60
2022-11-02T21:28:03.347Z,1.60
2022-11-02T21:31:45.336Z,1.80
2022-11-02T21:35:27.126Z,1.80
2022-11-02T21:39:08.896Z,2.42
2022-11-02T21:42:50.616Z,1.80
2022-11-02T21:46:32.686Z,1.52
2022-11-02T21:50:14.384Z,2.00
2022-11-02T21:53:56.825Z,1.50
2022-11-02T21:57:38.653Z,2.22
2022-11-02T22:01:40.368Z,2.30
2022-11-02T22:05:42.185Z,1.90
2022-11-02T22:09:23.965Z,1.83
2022-11-02T22:13:24.472Z,2.38
2022-11-02T22:17:16.670Z,2.53
2022-11-02T22:21:10.352Z,2.47
2022-11-02T22:24:52.101Z,2.40
2022-11-02T22:28:37.024Z,2.17
2022-11-02T22:32:18.750Z,2.45
2022-11-02T22:36:02.934Z,1.90
2022-11-02T22:39:44.655Z,2.45
2022-11-02T22:43:26.444Z,2.38
2022-11-02T22:47:08.140Z,2.17
2022-11-02T22:50:49.867Z,2.28
2022-11-02T22:54:31.565Z,2.75
2022-11-02T22:58:13.288Z,2.63
2022-11-02T23:01:55.070Z,2.55
2022-11-02T23:05:37.950Z,2.50
2022-11-02T23:09:21.624Z,2.03
2022-11-02T23:13:03.585Z,2.50
2022-11-02T23:16:47.094Z,2.40
2022-11-02T23:20:28.840Z,2.80
2022-11-02T23:24:30.353Z,2.60
2022-11-02T23:28:30.871Z,2.50
2022-11-02T23:32:26.824Z,2.33
2022-11-02T23:36:12.304Z,2.58
2022-11-02T23:39:54.150Z,1.90
2022-11-02T23:43:36.486Z,2.70
2022-11-02T23:47:18.209Z,2.53
2022-11-02T23:51:19.108Z,3.17
2022-11-02T23:55:20.435Z,2.67
2022-11-02T23:59:08.436Z,3.30
